createdAt,value
2018-04-29T00:02:14.907Z,3.40
2018-04-29T00:04:43.255Z,3.40
2018-04-29T00:07:10.792Z,3.77
2018-04-29T00:09:38.430Z,4.27
2018-04-29T00:12:05.985Z,3.83
2018-04-29T00:14:33.557Z,3.57
2018-04-29T00:17:01.064Z,4.17
2018-04-29T00:19:28.748Z,3.70
2018-04-29T00:21:57.101Z,3.90
2018-04-29T00:24:24.653Z,3.80
2018-04-29T00:26:52.189Z,3.87
2018-04-29T00:29:19.727Z,3.70
2018-04-29T00:31:47.267Z,4.57
2018-04-29T00:34:16.624Z,4.20
2018-04-29T00:36:44.192Z,11.80
2018-04-29T00:39:11.735Z,19.43
2018-04-29T00:41:40.097Z,4.50
2018-04-29T00:44:07.571Z,4.13
2018-04-29T00:46:35.167Z,3.40
2018-04-29T00:49:03.454Z,3.80
2018-04-29T00:51:43.703Z,3.20
2018-04-29T00:54:11.979Z,4.10
2018-04-29T00:56:40.245Z,4.47
2018-04-29T00:59:08.638Z,4.60
2018-04-29T01:01:36.066Z,4.37
2018-04-29T01:04:03.602Z,4.50
2018-04-29T01:06:31.177Z,4.17
2018-04-29T01:08:58.685Z,3.87
2018-04-29T01:11:26.200Z,3.80
2018-04-29T01:13:54.520Z,4.53
2018-04-29T01:16:22.197Z,4.00
2018-04-29T01:18:49.743Z,3.20
2018-04-29T01:21:17.271Z,15.10
2018-04-29T01:23:45.613Z,6.63
2018-04-29T01:26:13.124Z,3.67
2018-04-29T01:28:40.638Z,3.80
2018-04-29T01:31:08.441Z,3.93
2018-04-29T01:33:35.940Z,45.67
2018-04-29T01:36:03.460Z,43.73
2018-04-29T01:38:30.996Z,8.77
2018-04-29T01:40:59.401Z,4.60
2018-04-29T01:43:26.935Z,5.00
2018-04-29T01:45:55.229Z,3.87
2018-04-29T01:48:22.742Z,4.47
2018-04-29T01:50:50.309Z,5.00
2018-04-29T01:53:17.809Z,4.60
2018-04-29T01:55:45.323Z,3.73
2018-04-29T01:58:13.593Z,4.83
2018-04-29T02:00:41.093Z,5.00
2018-04-29T02:03:08.608Z,4.53
2018-04-29T02:05:36.124Z,4.00
2018-04-29T02:08:03.648Z,4.33
2018-04-29T02:10:31.933Z,4.57
2018-04-29T02:12:59.450Z,3.57
2018-04-29T02:15:27.068Z,5.07
2018-04-29T02:17:54.554Z,4.33
2018-04-29T02:20:22.259Z,3.43
2018-04-29T02:22:50.589Z,3.90
2018-04-29T02:25:18.101Z,4.53
2018-04-29T02:27:45.758Z,4.20
2018-04-29T02:30:13.283Z,4.10
2018-04-29T02:32:40.825Z,4.73
2018-04-29T02:35:08.342Z,4.57
2018-04-29T02:37:35.835Z,4.20
2018-04-29T02:40:03.473Z,4.73
2018-04-29T02:42:30.954Z,5.33
2018-04-29T02:44:58.489Z,6.10
2018-04-29T02:47:26.006Z,4.43
2018-04-29T02:49:54.276Z,5.40
2018-04-29T02:52:22.789Z,4.40
2018-04-29T02:54:50.330Z,4.37
2018-04-29T02:57:18.633Z,5.50
2018-04-29T02:59:46.300Z,5.07
2018-04-29T03:02:13.782Z,5.20
2018-04-29T03:04:41.276Z,4.87
2018-04-29T03:07:09.563Z,5.07
2018-04-29T03:09:37.064Z,4.30
2018-04-29T03:12:04.640Z,4.63
2018-04-29T03:14:32.184Z,4.90
2018-04-29T03:16:59.772Z,4.67
2018-04-29T03:19:28.073Z,5.90
2018-04-29T03:21:55.587Z,4.40
2018-04-29T03:24:23.127Z,4.30
2018-04-29T03:26:50.632Z,5.40
2018-04-29T03:29:19.125Z,4.53
2018-04-29T03:31:46.705Z,5.17
2018-04-29T03:34:14.244Z,5.03
2018-04-29T03:36:41.857Z,4.47
2018-04-29T03:39:09.377Z,5.47
2018-04-29T03:41:36.860Z,4.90
2018-04-29T03:44:04.705Z,4.37
2018-04-29T03:46:32.959Z,4.40
2018-04-29T03:49:00.470Z,5.50
2018-04-29T03:51:28.056Z,5.23
2018-04-29T03:53:56.341Z,4.60
2018-04-29T03:56:24.580Z,4.30
2018-04-29T03:59:04.179Z,3.90
2018-04-29T04:01:51.283Z,17.37
2018-04-29T04:04:11.793Z,7.13
2018-04-29T04:06:39.298Z,4.57
2018-04-29T04:09:06.804Z,4.87
2018-04-29T04:11:34.631Z,3.77
2018-04-29T04:14:02.910Z,4.80
2018-04-29T04:16:31.191Z,4.40
2018-04-29T04:18:59.472Z,15.50
2018-04-29T04:21:26.982Z,5.60
2018-04-29T04:23:54.470Z,4.40
2018-04-29T04:26:22.925Z,4.87
2018-04-29T04:28:50.411Z,5.30
2018-04-29T04:31:18.661Z,4.20
2018-04-29T04:33:46.182Z,5.00
2018-04-29T04:36:13.684Z,4.77
2018-04-29T04:38:41.198Z,30.23
2018-04-29T04:41:08.717Z,7.40
2018-04-29T04:43:36.969Z,5.50
2018-04-29T04:46:04.505Z,4.83
2018-04-29T04:48:32.042Z,4.83
2018-04-29T04:50:59.601Z,5.17
2018-04-29T04:53:27.094Z,5.00
2018-04-29T04:55:54.644Z,4.33
2018-04-29T04:58:22.174Z,5.00
2018-04-29T05:00:49.680Z,4.77
2018-04-29T05:03:18.003Z,5.37
2018-04-29T05:05:45.534Z,4.67
2018-04-29T05:08:13.948Z,4.60
2018-04-29T05:10:41.464Z,4.20
2018-04-29T05:13:09.723Z,4.33
2018-04-29T05:15:37.260Z,4.70
2018-04-29T05:18:04.966Z,4.77
2018-04-29T05:20:32.462Z,4.50
2018-04-29T05:23:00.011Z,5.30
2018-04-29T05:25:27.871Z,4.30
2018-04-29T05:27:55.352Z,4.43
2018-04-29T05:30:22.853Z,4.40
2018-04-29T05:32:51.141Z,4.70
2018-04-29T05:35:18.699Z,5.00
2018-04-29T05:37:46.168Z,5.80
2018-04-29T05:40:13.695Z,4.77
2018-04-29T05:42:41.967Z,5.10
2018-04-29T05:45:09.484Z,5.13
2018-04-29T05:47:37.012Z,5.00
2018-04-29T05:50:04.562Z,4.80
2018-04-29T05:52:32.048Z,6.00
2018-04-29T05:54:59.901Z,6.17
2018-04-29T05:57:27.393Z,6.60
2018-04-29T05:59:54.907Z,6.27
2018-04-29T06:02:22.413Z,5.30
2018-04-29T06:04:49.948Z,6.13
2018-04-29T06:07:17.520Z,5.20
2018-04-29T06:09:45.070Z,6.80
2018-04-29T06:12:12.695Z,6.20
2018-04-29T06:14:40.214Z,7.10
2018-04-29T06:17:08.533Z,7.17
2018-04-29T06:19:36.047Z,8.40
2018-04-29T06:22:03.582Z,7.73
2018-04-29T06:24:31.221Z,7.03
2018-04-29T06:26:58.768Z,8.03
2018-04-29T06:29:26.340Z,6.47
2018-04-29T06:31:54.558Z,7.30
2018-04-29T06:34:22.788Z,7.50
2018-04-29T06:36:50.419Z,17.33
2018-04-29T06:39:18.728Z,20.63
2018-04-29T06:41:46.248Z,37.80
2018-04-29T06:44:14.589Z,11.50
2018-04-29T06:46:42.131Z,9.10
2018-04-29T06:49:09.665Z,9.40
2018-04-29T06:51:37.236Z,12.53
2018-04-29T06:54:04.762Z,9.27
2018-04-29T06:56:32.312Z,7.40
2018-04-29T06:58:59.843Z,9.77
2018-04-29T07:01:27.372Z,8.90
2018-04-29T07:03:54.911Z,9.10
2018-04-29T07:06:22.485Z,9.47
2018-04-29T07:08:50.004Z,9.40
2018-04-29T07:11:18.291Z,8.27
2018-04-29T07:13:45.849Z,9.50
2018-04-29T07:16:13.939Z,10.30
2018-04-29T07:18:41.441Z,9.27
2018-04-29T07:21:08.957Z,8.60
2018-04-29T07:23:36.554Z,8.30
2018-04-29T07:26:04.149Z,7.53
2018-04-29T07:28:31.609Z,6.50
2018-04-29T07:30:59.204Z,6.60
2018-04-29T07:33:26.728Z,7.40
2018-04-29T07:35:55.056Z,6.77
2018-04-29T07:38:22.768Z,7.63
2018-04-29T07:40:50.277Z,8.90
2018-04-29T07:43:17.865Z,7.90
2018-04-29T07:45:46.461Z,9.03
2018-04-29T07:48:14.010Z,8.63
2018-04-29T07:50:42.426Z,8.83
2018-04-29T07:53:09.966Z,9.63
2018-04-29T07:55:37.493Z,9.17
2018-04-29T07:58:05.013Z,9.40
2018-04-29T08:00:32.653Z,9.87
2018-04-29T08:03:00.188Z,9.77
2018-04-29T08:05:28.515Z,9.70
2018-04-29T08:07:56.910Z,10.50
2018-04-29T08:10:24.473Z,12.67
2018-04-29T08:12:52.018Z,12.33
2018-04-29T08:15:19.556Z,12.83
2018-04-29T08:17:47.129Z,11.37
2018-04-29T08:20:15.493Z,10.93
2018-04-29T08:22:43.025Z,9.87
2018-04-29T08:25:10.545Z,10.53
2018-04-29T08:27:38.079Z,7.90
2018-04-29T08:30:05.620Z,8.67
2018-04-29T08:32:33.203Z,7.40
2018-04-29T08:35:00.831Z,7.97
2018-04-29T08:37:28.452Z,6.90
2018-04-29T08:39:56.761Z,8.20
2018-04-29T08:42:24.425Z,8.30
2018-04-29T08:44:51.932Z,7.60
2018-04-29T08:47:19.548Z,7.30
2018-04-29T08:49:47.403Z,7.73
2018-04-29T08:52:14.932Z,8.20
2018-04-29T08:54:42.479Z,8.03
2018-04-29T08:57:10.044Z,6.70
2018-04-29T08:59:38.462Z,7.00
2018-04-29T09:02:05.980Z,6.73
2018-04-29T09:04:34.279Z,6.77
2018-04-29T09:07:01.825Z,6.40
2018-04-29T09:09:30.233Z,7.73
2018-04-29T09:11:58.112Z,6.10
2018-04-29T09:14:25.751Z,7.20
2018-04-29T09:16:53.292Z,6.73
2018-04-29T09:19:21.577Z,5.60
2018-04-29T09:21:49.127Z,7.20
2018-04-29T09:24:16.701Z,7.97
2018-04-29T09:26:44.271Z,7.90
2018-04-29T09:29:11.809Z,5.10
2018-04-29T09:31:41.460Z,4.27
2018-04-29T09:34:09.015Z,4.83
2018-04-29T09:36:38.671Z,5.20
2018-04-29T09:39:06.950Z,4.20
2018-04-29T09:41:35.332Z,4.70
2018-04-29T09:44:02.872Z,5.77
2018-04-29T09:46:31.165Z,5.70
2018-04-29T09:48:59.282Z,5.47
2018-04-29T09:51:29.406Z,5.20
2018-04-29T09:53:56.938Z,5.90
2018-04-29T09:56:29.109Z,5.23
2018-04-29T09:58:57.781Z,4.97
2018-04-29T10:01:26.466Z,6.10
2018-04-29T10:03:54.564Z,6.20
2018-04-29T10:06:22.096Z,5.60
2018-04-29T10:08:49.640Z,6.17
2018-04-29T10:11:19.010Z,5.57
2018-04-29T10:13:47.285Z,5.30
2018-04-29T10:16:26.328Z,6.40
2018-04-29T10:18:54.719Z,4.77
2018-04-29T10:21:24.074Z,6.47
2018-04-29T10:23:51.753Z,7.03
2018-04-29T10:26:19.249Z,6.10
2018-04-29T10:28:47.206Z,6.80
2018-04-29T10:31:15.082Z,7.33
2018-04-29T10:33:42.628Z,8.07
2018-04-29T10:36:22.571Z,7.93
2018-04-29T10:38:50.956Z,6.23
2018-04-29T10:41:18.981Z,8.17
2018-04-29T10:43:47.003Z,7.20
2018-04-29T10:46:14.600Z,6.07
2018-04-29T10:48:42.416Z,5.80
2018-04-29T10:51:10.099Z,6.80
2018-04-29T10:53:37.961Z,5.80
2018-04-29T10:56:05.469Z,7.20
2018-04-29T10:58:33.577Z,5.90
2018-04-29T11:01:01.871Z,5.50
2018-04-29T11:03:29.437Z,4.50
2018-04-29T11:05:58.139Z,5.27
2018-04-29T11:08:26.551Z,4.90
2018-04-29T11:10:54.353Z,5.03
2018-04-29T11:13:22.722Z,5.40
2018-04-29T11:15:51.268Z,7.53
2018-04-29T11:18:23.586Z,5.90
2018-04-29T11:20:51.648Z,5.90
2018-04-29T11:23:19.453Z,7.03
2018-04-29T11:25:47.599Z,8.43
2018-04-29T11:28:15.443Z,7.67
2018-04-29T11:30:42.960Z,6.90
2018-04-29T11:33:20.712Z,6.73
2018-04-29T11:35:48.304Z,6.37
2018-04-29T11:38:16.027Z,5.40
2018-04-29T11:40:54.616Z,5.20
2018-04-29T11:43:22.230Z,5.57
2018-04-29T11:45:49.769Z,4.73
2018-04-29T11:48:17.930Z,4.93
2018-04-29T11:50:46.154Z,4.17
2018-04-29T11:53:14.435Z,4.87
2018-04-29T11:55:42.314Z,4.90
2018-04-29T11:58:22.549Z,5.10
2018-04-29T12:00:50.076Z,4.80
2018-04-29T12:03:17.572Z,5.80
2018-04-29T12:05:46.688Z,4.50
2018-04-29T12:08:14.975Z,5.00
2018-04-29T12:10:42.474Z,5.20
2018-04-29T12:13:10.017Z,4.93
2018-04-29T12:15:37.530Z,5.10
2018-04-29T12:18:15.333Z,4.90
2018-04-29T12:20:43.649Z,4.37
2018-04-29T12:23:12.426Z,4.20
2018-04-29T12:25:50.040Z,4.63
2018-04-29T12:28:18.573Z,4.47
2018-04-29T12:30:46.852Z,5.10
2018-04-29T12:33:15.170Z,4.80
2018-04-29T12:35:42.686Z,5.40
2018-04-29T12:38:11.961Z,4.70
2018-04-29T12:40:40.700Z,5.17
2018-04-29T12:43:08.977Z,3.70
2018-04-29T12:45:37.209Z,5.33
2018-04-29T12:48:06.325Z,4.60
2018-04-29T12:50:33.832Z,5.50
2018-04-29T12:53:02.889Z,5.70
2018-04-29T12:55:31.293Z,5.43
2018-04-29T12:57:58.834Z,4.97
2018-04-29T13:00:26.395Z,5.30
2018-04-29T13:02:54.566Z,4.90
2018-04-29T13:05:22.077Z,6.07
2018-04-29T13:07:50.401Z,4.90
2018-04-29T13:10:18.045Z,6.00
2018-04-29T13:12:45.576Z,4.23
2018-04-29T13:15:13.909Z,5.37
2018-04-29T13:17:41.455Z,5.60
2018-04-29T13:20:08.967Z,5.33
2018-04-29T13:22:37.238Z,4.83
2018-04-29T13:25:05.562Z,4.50
2018-04-29T13:27:33.155Z,5.47
2018-04-29T13:30:05.677Z,4.70
2018-04-29T13:32:33.241Z,5.43
2018-04-29T13:35:00.812Z,4.70
2018-04-29T13:37:28.590Z,5.03
2018-04-29T13:39:56.093Z,5.50
2018-04-29T13:42:24.419Z,4.80
2018-04-29T13:44:52.031Z,4.37
2018-04-29T13:47:20.302Z,5.33
2018-04-29T13:49:48.588Z,4.33
2018-04-29T13:52:17.201Z,4.27
2018-04-29T13:54:44.881Z,4.30
2018-04-29T13:57:12.386Z,6.53
2018-04-29T13:59:40.719Z,4.63
2018-04-29T14:02:08.258Z,4.53
2018-04-29T14:04:35.866Z,4.00
2018-04-29T14:07:03.585Z,5.07
2018-04-29T14:09:31.230Z,4.40
2018-04-29T14:11:58.762Z,5.00
2018-04-29T14:14:26.344Z,4.90
2018-04-29T14:16:53.907Z,6.33
2018-04-29T14:19:21.453Z,4.47
2018-04-29T14:21:49.071Z,5.40
2018-04-29T14:24:16.684Z,5.10
2018-04-29T14:26:44.259Z,5.23
2018-04-29T14:29:11.950Z,4.90
2018-04-29T14:31:39.562Z,4.80
2018-04-29T14:34:07.086Z,5.47
2018-04-29T14:36:35.389Z,4.37
2018-04-29T14:39:02.997Z,5.40
2018-04-29T14:41:30.551Z,5.60
2018-04-29T14:43:58.076Z,5.50
2018-04-29T14:46:25.586Z,4.37
2018-04-29T14:48:53.907Z,4.90
2018-04-29T14:51:21.469Z,4.67
2018-04-29T14:53:48.988Z,4.73
2018-04-29T14:56:16.515Z,5.00
2018-04-29T14:58:44.390Z,5.80
2018-04-29T15:01:11.911Z,4.80
2018-04-29T15:03:39.467Z,5.53
2018-04-29T15:06:07.031Z,4.80
2018-04-29T15:08:34.538Z,4.53
2018-04-29T15:11:02.832Z,4.70
2018-04-29T15:13:30.390Z,4.50
2018-04-29T15:15:58.689Z,4.50
2018-04-29T15:18:38.154Z,4.63
2018-04-29T15:21:05.684Z,4.33
2018-04-29T15:23:33.248Z,4.30
2018-04-29T15:26:01.084Z,5.63
2018-04-29T15:28:29.356Z,4.27
2018-04-29T15:30:58.065Z,4.00
2018-04-29T15:33:25.622Z,3.80
2018-04-29T15:35:53.113Z,4.30
2018-04-29T15:38:20.616Z,6.27
2018-04-29T15:40:49.081Z,3.57
2018-04-29T15:43:16.647Z,4.40
2018-04-29T15:45:44.182Z,3.70
2018-04-29T15:48:12.090Z,3.57
2018-04-29T15:50:39.594Z,4.03
2018-04-29T15:53:07.096Z,4.50
2018-04-29T15:55:34.654Z,4.93
2018-04-29T15:58:02.279Z,3.53
2018-04-29T16:00:30.497Z,4.60
2018-04-29T16:02:58.937Z,4.27
2018-04-29T16:05:26.529Z,4.20
2018-04-29T16:07:54.211Z,4.73
2018-04-29T16:10:21.721Z,9.43
2018-04-29T16:12:50.014Z,5.23
2018-04-29T16:15:17.549Z,5.10
2018-04-29T16:17:45.181Z,4.40
2018-04-29T16:20:12.778Z,4.23
2018-04-29T16:22:41.080Z,5.03
2018-04-29T16:25:08.666Z,4.63
2018-04-29T16:27:36.212Z,4.80
2018-04-29T16:30:03.776Z,5.17
2018-04-29T16:32:33.041Z,5.03
2018-04-29T16:35:01.329Z,4.70
2018-04-29T16:37:28.860Z,4.90
2018-04-29T16:39:57.175Z,4.40
2018-04-29T16:42:24.758Z,4.23
2018-04-29T16:44:52.281Z,5.50
2018-04-29T16:47:19.924Z,5.50
2018-04-29T16:49:48.337Z,4.60
2018-04-29T16:52:15.876Z,4.30
2018-04-29T16:54:43.492Z,4.27
2018-04-29T16:57:11.009Z,4.33
2018-04-29T16:59:38.521Z,4.47
2018-04-29T17:02:06.791Z,4.40
2018-04-29T17:04:34.369Z,4.57
2018-04-29T17:07:02.681Z,4.30
2018-04-29T17:09:30.298Z,4.50
2018-04-29T17:11:58.513Z,5.13
2018-04-29T17:14:26.049Z,4.60
2018-04-29T17:16:54.380Z,4.60
2018-04-29T17:19:21.997Z,4.30
2018-04-29T17:21:50.897Z,4.80
2018-04-29T17:24:18.463Z,4.03
2018-04-29T17:26:45.984Z,3.80
2018-04-29T17:29:13.540Z,3.90
2018-04-29T17:31:41.832Z,3.60
2018-04-29T17:34:09.403Z,3.50
2018-04-29T17:36:36.927Z,4.27
2018-04-29T17:39:05.254Z,3.90
2018-04-29T17:41:33.533Z,4.40
2018-04-29T17:44:01.030Z,4.40
2018-04-29T17:46:28.582Z,4.67
2018-04-29T17:48:56.924Z,4.77
2018-04-29T17:51:24.469Z,4.70
2018-04-29T17:53:51.986Z,4.30
2018-04-29T17:56:20.366Z,4.50
2018-04-29T17:58:48.676Z,4.33
2018-04-29T18:01:16.236Z,4.80
2018-04-29T18:03:43.798Z,5.60
2018-04-29T18:06:11.349Z,4.40
2018-04-29T18:08:40.237Z,8.20
2018-04-29T18:11:08.067Z,4.63
2018-04-29T18:13:36.438Z,4.83
2018-04-29T18:16:03.974Z,5.47
2018-04-29T18:18:31.567Z,4.80
2018-04-29T18:20:59.861Z,4.90
2018-04-29T18:23:27.464Z,8.53
2018-04-29T18:25:54.971Z,6.20
2018-04-29T18:28:22.580Z,6.10
2018-04-29T18:30:50.140Z,6.43
2018-04-29T18:33:17.738Z,5.60
2018-04-29T18:35:46.097Z,5.70
2018-04-29T18:38:17.551Z,5.90
2018-04-29T18:40:45.102Z,6.13
2018-04-29T18:43:12.729Z,5.57
2018-04-29T18:45:40.301Z,6.27
2018-04-29T18:48:07.889Z,6.20
2018-04-29T18:50:35.580Z,7.23
2018-04-29T18:53:04.095Z,5.80
2018-04-29T18:55:31.975Z,6.63
2018-04-29T18:57:59.639Z,6.30
2018-04-29T19:00:27.193Z,5.33
2018-04-29T19:02:54.773Z,6.30
2018-04-29T19:05:23.502Z,6.17
2018-04-29T19:07:51.114Z,6.17
2018-04-29T19:10:18.728Z,5.57
2018-04-29T19:12:46.224Z,5.73
2018-04-29T19:15:14.293Z,6.07
2018-04-29T19:17:41.927Z,5.33
2018-04-29T19:20:10.734Z,5.43
2018-04-29T19:22:38.334Z,6.87
2018-04-29T19:25:05.920Z,6.20
2018-04-29T19:27:33.473Z,6.10
2018-04-29T19:30:01.018Z,6.20
2018-04-29T19:32:28.546Z,6.97
2018-04-29T19:34:56.195Z,6.63
2018-04-29T19:37:23.773Z,6.47
2018-04-29T19:39:52.033Z,7.20
2018-04-29T19:42:20.767Z,6.27
2018-04-29T19:44:48.606Z,6.40
2018-04-29T19:47:27.138Z,6.73
2018-04-29T19:49:56.058Z,6.57
2018-04-29T19:52:33.608Z,6.80
2018-04-29T19:55:02.087Z,7.27
2018-04-29T19:57:30.345Z,6.60
2018-04-29T19:59:59.940Z,6.40
2018-04-29T20:02:27.514Z,6.07
2018-04-29T20:05:06.531Z,6.40
2018-04-29T20:07:35.637Z,6.53
2018-04-29T20:10:04.470Z,6.40
2018-04-29T20:12:32.331Z,6.40
2018-04-29T20:15:01.317Z,6.50
2018-04-29T20:17:29.793Z,5.63
2018-04-29T20:19:57.312Z,5.87
2018-04-29T20:22:25.646Z,5.90
2018-04-29T20:24:53.183Z,6.27
2018-04-29T20:27:20.709Z,6.33
2018-04-29T20:29:48.234Z,5.43
2018-04-29T20:32:28.403Z,5.30
2018-04-29T20:35:07.089Z,5.50
2018-04-29T20:37:38.209Z,5.73
2018-04-29T20:40:06.968Z,4.77
2018-04-29T20:42:34.554Z,7.67
2018-04-29T20:45:10.482Z,5.70
2018-04-29T20:47:39.081Z,5.67
2018-04-29T20:50:06.598Z,4.60
2018-04-29T20:52:38.800Z,7.13
2018-04-29T20:55:07.860Z,5.37
2018-04-29T20:57:35.381Z,6.30
2018-04-29T21:00:03.043Z,5.70
2018-04-29T21:02:31.211Z,6.03
2018-04-29T21:04:59.142Z,6.90
2018-04-29T21:07:27.008Z,6.33
2018-04-29T21:09:55.312Z,5.90
2018-04-29T21:12:22.993Z,5.63
2018-04-29T21:14:50.616Z,5.33
2018-04-29T21:17:18.207Z,6.30
2018-04-29T21:19:46.456Z,5.60
2018-04-29T21:22:14.815Z,5.83
2018-04-29T21:24:43.238Z,4.97
2018-04-29T21:27:11.008Z,5.70
2018-04-29T21:29:38.533Z,5.30
2018-04-29T21:32:06.071Z,5.63
2018-04-29T21:34:34.400Z,5.30
2018-04-29T21:37:01.909Z,5.97
2018-04-29T21:39:30.218Z,6.27
2018-04-29T21:41:57.739Z,6.57
2018-04-29T21:44:26.113Z,7.63
2018-04-29T21:46:53.627Z,8.47
2018-04-29T21:49:21.120Z,7.30
2018-04-29T21:51:48.734Z,7.10
2018-04-29T21:54:16.315Z,8.27
2018-04-29T21:56:43.824Z,8.50
2018-04-29T21:59:11.685Z,8.00
2018-04-29T22:01:39.389Z,8.60
2018-04-29T22:04:07.004Z,7.73
2018-04-29T22:06:35.595Z,8.40
2018-04-29T22:09:03.855Z,11.07
2018-04-29T22:11:32.137Z,14.00
2018-04-29T22:14:00.446Z,20.30
2018-04-29T22:16:28.022Z,23.57
2018-04-29T22:18:56.398Z,27.20
2018-04-29T22:21:23.956Z,29.50
2018-04-29T22:23:51.495Z,30.87
2018-04-29T22:26:19.015Z,26.20
2018-04-29T22:28:46.542Z,23.33
2018-04-29T22:31:14.072Z,20.77
2018-04-29T22:33:41.689Z,20.83
2018-04-29T22:36:10.111Z,23.33
2018-04-29T22:38:37.620Z,23.27
2018-04-29T22:41:14.566Z,22.77
2018-04-29T22:43:42.099Z,23.70
2018-04-29T22:46:09.628Z,20.80
2018-04-29T22:48:38.324Z,17.97
2018-04-29T22:51:05.863Z,17.97
2018-04-29T22:53:33.384Z,13.40
2018-04-29T22:56:01.105Z,12.60
2018-04-29T22:58:28.718Z,7.47
2018-04-29T23:00:56.921Z,5.30
2018-04-29T23:03:25.197Z,6.80
2018-04-29T23:05:53.485Z,4.37
2018-04-29T23:08:21.084Z,4.70
2018-04-29T23:10:48.647Z,4.40
2018-04-29T23:13:16.261Z,4.90
2018-04-29T23:15:43.759Z,4.73
2018-04-29T23:18:11.277Z,5.80
2018-04-29T23:20:39.773Z,6.03
2018-04-29T23:23:07.287Z,7.27
2018-04-29T23:25:34.839Z,7.27
2018-04-29T23:28:02.366Z,7.53
2018-04-29T23:30:29.921Z,8.80
2018-04-29T23:32:57.536Z,8.33
2018-04-29T23:35:25.844Z,9.80
2018-04-29T23:37:53.342Z,12.63
2018-04-29T23:40:20.942Z,9.63
2018-04-29T23:42:48.517Z,9.40
2018-04-29T23:45:16.087Z,10.37
2018-04-29T23:47:43.718Z,10.00
2018-04-29T23:50:11.342Z,11.50
2018-04-29T23:52:38.854Z,11.60
2018-04-29T23:55:06.411Z,10.30
2018-04-29T23:57:33.973Z,11.50
